sensor_id;sensor_type;location;lat;lon;timestamp;temperature;humidity
14786;DHT22;7484;49.906;9.058;2023-02-28T00:00:49;-0.70;99.90
14786;DHT22;7484;49.906;9.058;2023-02-28T00:03:16;-0.70;99.90
14786;DHT22;7484;49.906;9.058;2023-02-28T00:05:44;-0.70;99.90
14786;DHT22;7484;49.906;9.058;2023-02-28T00:08:11;-0.90;99.90
14786;DHT22;7484;49.906;9.058;2023-02-28T00:10:38;-0.90;99.90
14786;DHT22;7484;49.906;9.058;2023-02-28T00:13:06;-1.00;99.90
14786;DHT22;7484;49.906;9.058;2023-02-28T00:15:33;-1.00;99.90
14786;DHT22;7484;49.906;9.058;2023-02-28T00:18:07;-1.20;99.90
14786;DHT22;7484;49.906;9.058;2023-02-28T00:20:34;-1.30;99.90
14786;DHT22;7484;49.906;9.058;2023-02-28T00:23:02;-1.40;99.90
14786;DHT22;7484;49.906;9.058;2023-02-28T00:25:29;-1.30;99.90
14786;DHT22;7484;49.906;9.058;2023-02-28T00:27:56;-1.40;99.90
14786;DHT22;7484;49.906;9.058;2023-02-28T00:30:23;-1.40;99.90
14786;DHT22;7484;49.906;9.058;2023-02-28T00:32:50;-1.40;99.90
14786;DHT22;7484;49.906;9.058;2023-02-28T00:35:18;-1.40;99.90
14786;DHT22;7484;49.906;9.058;2023-02-28T00:37:44;-1.40;99.90
14786;DHT22;7484;49.906;9.058;2023-02-28T00:40:12;-1.30;99.90
14786;DHT22;7484;49.906;9.058;2023-02-28T00:42:39;-1.10;99.90
14786;DHT22;7484;49.906;9.058;2023-02-28T00:45:07;-1.10;99.90
14786;DHT22;7484;49.906;9.058;2023-02-28T00:47:37;-1.00;99.90
14786;DHT22;7484;49.906;9.058;2023-02-28T00:50:05;-0.80;99.90
14786;DHT22;7484;49.906;9.058;2023-02-28T00:52:32;-0.80;99.90
14786;DHT22;7484;49.906;9.058;2023-02-28T00:54:58;-0.90;99.90
14786;DHT22;7484;49.906;9.058;2023-02-28T00:57:26;-0.90;99.90
14786;DHT22;7484;49.906;9.058;2023-02-28T00:59:53;-0.90;99.90
14786;DHT22;7484;49.906;9.058;2023-02-28T01:02:20;-0.90;99.90
14786;DHT22;7484;49.906;9.058;2023-02-28T01:04:48;-1.00;99.90
14786;DHT22;7484;49.906;9.058;2023-02-28T01:07:15;-1.20;99.90
14786;DHT22;7484;49.906;9.058;2023-02-28T01:09:41;-1.40;99.90
14786;DHT22;7484;49.906;9.058;2023-02-28T01:12:09;-1.70;99.90
14786;DHT22;7484;49.906;9.058;2023-02-28T01:14:37;-1.20;99.90
14786;DHT22;7484;49.906;9.058;2023-02-28T01:17:03;-2.10;99.90
14786;DHT22;7484;49.906;9.058;2023-02-28T01:19:31;-2.30;99.90
14786;DHT22;7484;49.906;9.058;2023-02-28T01:22:00;-2.40;99.90
14786;DHT22;7484;49.906;9.058;2023-02-28T01:24:27;-2.30;99.90
14786;DHT22;7484;49.906;9.058;2023-02-28T01:26:54;-2.30;99.90
14786;DHT22;7484;49.906;9.058;2023-02-28T01:29:20;-2.30;99.90
14786;DHT22;7484;49.906;9.058;2023-02-28T01:31:49;-2.30;99.90
14786;DHT22;7484;49.906;9.058;2023-02-28T01:34:16;-2.30;99.90
14786;DHT22;7484;49.906;9.058;2023-02-28T01:36:44;-2.10;99.90
14786;DHT22;7484;49.906;9.058;2023-02-28T01:39:11;-2.10;99.90
14786;DHT22;7484;49.906;9.058;2023-02-28T01:41:39;-2.10;99.90
14786;DHT22;7484;49.906;9.058;2023-02-28T01:46:50;-2.00;99.90
14786;DHT22;7484;49.906;9.058;2023-02-28T01:49:18;-2.00;99.90
14786;DHT22;7484;49.906;9.058;2023-02-28T01:51:47;-2.10;99.90
14786;DHT22;7484;49.906;9.058;2023-02-28T01:54:18;-2.20;99.90
14786;DHT22;7484;49.906;9.058;2023-02-28T01:56:49;-2.20;99.90
14786;DHT22;7484;49.906;9.058;2023-02-28T01:59:23;-2.30;99.90
14786;DHT22;7484;49.906;9.058;2023-02-28T02:01:53;-2.30;99.90
14786;DHT22;7484;49.906;9.058;2023-02-28T02:04:21;-2.30;99.90
14786;DHT22;7484;49.906;9.058;2023-02-28T02:06:49;-2.30;99.90
14786;DHT22;7484;49.906;9.058;2023-02-28T02:09:16;-2.40;99.90
14786;DHT22;7484;49.906;9.058;2023-02-28T02:11:44;-2.40;99.90
14786;DHT22;7484;49.906;9.058;2023-02-28T02:14:32;-2.50;99.90
14786;DHT22;7484;49.906;9.058;2023-02-28T02:17:15;-2.50;99.90
14786;DHT22;7484;49.906;9.058;2023-02-28T02:20:16;-2.70;99.90
14786;DHT22;7484;49.906;9.058;2023-02-28T02:25:56;-2.80;99.90
14786;DHT22;7484;49.906;9.058;2023-02-28T02:28:41;-2.70;99.90
14786;DHT22;7484;49.906;9.058;2023-02-28T02:31:27;-2.70;99.90
14786;DHT22;7484;49.906;9.058;2023-02-28T02:34:25;-2.70;99.90
14786;DHT22;7484;49.906;9.058;2023-02-28T02:37:01;-2.50;99.90
14786;DHT22;7484;49.906;9.058;2023-02-28T02:39:33;-2.60;99.90
14786;DHT22;7484;49.906;9.058;2023-02-28T02:42:11;-2.80;99.90
14786;DHT22;7484;49.906;9.058;2023-02-28T02:44:42;-2.90;99.90
14786;DHT22;7484;49.906;9.058;2023-02-28T02:47:13;-2.90;99.90
14786;DHT22;7484;49.906;9.058;2023-02-28T02:49:45;-3.00;99.90
14786;DHT22;7484;49.906;9.058;2023-02-28T02:52:16;-3.00;99.90
14786;DHT22;7484;49.906;9.058;2023-02-28T02:54:46;-3.00;99.90
14786;DHT22;7484;49.906;9.058;2023-02-28T02:57:19;-3.00;99.90
14786;DHT22;7484;49.906;9.058;2023-02-28T02:59:50;-3.00;99.90
14786;DHT22;7484;49.906;9.058;2023-02-28T03:02:20;-3.00;99.90
14786;DHT22;7484;49.906;9.058;2023-02-28T03:04:52;-2.90;99.90
14786;DHT22;7484;49.906;9.058;2023-02-28T03:07:21;-2.80;99.90
14786;DHT22;7484;49.906;9.058;2023-02-28T03:09:51;-2.80;99.90
14786;DHT22;7484;49.906;9.058;2023-02-28T03:12:19;-3.00;99.90
14786;DHT22;7484;49.906;9.058;2023-02-28T03:14:55;-3.20;99.90
14786;DHT22;7484;49.906;9.058;2023-02-28T03:17:44;-3.30;99.90
14786;DHT22;7484;49.906;9.058;2023-02-28T03:20:19;-3.30;99.90
14786;DHT22;7484;49.906;9.058;2023-02-28T03:23:00;-3.20;99.90
14786;DHT22;7484;49.906;9.058;2023-02-28T03:25:32;-3.00;99.90
14786;DHT22;7484;49.906;9.058;2023-02-28T03:28:08;-2.90;99.90
14786;DHT22;7484;49.906;9.058;2023-02-28T03:30:41;-2.90;99.90
14786;DHT22;7484;49.906;9.058;2023-02-28T03:33:13;-2.90;99.90
14786;DHT22;7484;49.906;9.058;2023-02-28T03:35:48;-3.10;99.90
14786;DHT22;7484;49.906;9.058;2023-02-28T03:38:20;-3.40;99.90
14786;DHT22;7484;49.906;9.058;2023-02-28T03:40:52;-3.40;99.90
14786;DHT22;7484;49.906;9.058;2023-02-28T03:43:28;-3.40;99.90
14786;DHT22;7484;49.906;9.058;2023-02-28T03:45:56;-3.30;99.90
14786;DHT22;7484;49.906;9.058;2023-02-28T03:48:29;-3.30;99.90
14786;DHT22;7484;49.906;9.058;2023-02-28T03:50:59;-3.30;99.90
14786;DHT22;7484;49.906;9.058;2023-02-28T03:53:28;-3.10;99.90
14786;DHT22;7484;49.906;9.058;2023-02-28T03:56:00;-3.00;99.90
14786;DHT22;7484;49.906;9.058;2023-02-28T03:58:31;-2.80;99.90
14786;DHT22;7484;49.906;9.058;2023-02-28T04:01:06;-3.00;99.90
14786;DHT22;7484;49.906;9.058;2023-02-28T04:03:34;-3.20;99.90
14786;DHT22;7484;49.906;9.058;2023-02-28T04:06:04;-3.40;99.90
14786;DHT22;7484;49.906;9.058;2023-02-28T04:08:32;-3.40;99.90
14786;DHT22;7484;49.906;9.058;2023-02-28T04:11:02;-3.40;99.90
14786;DHT22;7484;49.906;9.058;2023-02-28T04:13:31;-3.60;99.90
14786;DHT22;7484;49.906;9.058;2023-02-28T04:15:58;-3.70;99.90
14786;DHT22;7484;49.906;9.058;2023-02-28T04:18:24;-3.70;99.90
14786;DHT22;7484;49.906;9.058;2023-02-28T04:20:51;-3.60;99.90
14786;DHT22;7484;49.906;9.058;2023-02-28T04:23:19;-3.70;99.90
14786;DHT22;7484;49.906;9.058;2023-02-28T04:25:46;-3.60;99.90
14786;DHT22;7484;49.906;9.058;2023-02-28T04:28:12;-3.70;99.90
14786;DHT22;7484;49.906;9.058;2023-02-28T04:30:39;-3.80;99.90
14786;DHT22;7484;49.906;9.058;2023-02-28T04:33:06;-4.00;99.90
14786;DHT22;7484;49.906;9.058;2023-02-28T04:35:32;-4.10;99.90
14786;DHT22;7484;49.906;9.058;2023-02-28T04:37:59;-4.20;99.90
14786;DHT22;7484;49.906;9.058;2023-02-28T04:40:27;-4.20;99.90
14786;DHT22;7484;49.906;9.058;2023-02-28T04:42:54;-4.30;99.90
14786;DHT22;7484;49.906;9.058;2023-02-28T04:45:21;-4.20;99.90
14786;DHT22;7484;49.906;9.058;2023-02-28T04:47:48;-4.20;99.90
14786;DHT22;7484;49.906;9.058;2023-02-28T04:50:15;-4.20;99.90
14786;DHT22;7484;49.906;9.058;2023-02-28T04:52:41;-4.20;99.90
14786;DHT22;7484;49.906;9.058;2023-02-28T04:55:08;-4.30;99.90
14786;DHT22;7484;49.906;9.058;2023-02-28T04:57:37;-4.30;99.90
14786;DHT22;7484;49.906;9.058;2023-02-28T05:00:04;-4.20;99.90
14786;DHT22;7484;49.906;9.058;2023-02-28T05:02:37;-4.20;99.90
14786;DHT22;7484;49.906;9.058;2023-02-28T05:05:04;-4.30;99.90
14786;DHT22;7484;49.906;9.058;2023-02-28T05:07:31;-4.30;99.90
14786;DHT22;7484;49.906;9.058;2023-02-28T05:09:57;-4.40;99.90
14786;DHT22;7484;49.906;9.058;2023-02-28T05:12:24;-4.40;99.90
14786;DHT22;7484;49.906;9.058;2023-02-28T05:14:53;-4.50;99.90
14786;DHT22;7484;49.906;9.058;2023-02-28T05:17:20;-4.60;99.90
14786;DHT22;7484;49.906;9.058;2023-02-28T05:19:46;-4.60;99.90
14786;DHT22;7484;49.906;9.058;2023-02-28T05:22:14;-4.50;99.90
14786;DHT22;7484;49.906;9.058;2023-02-28T05:24:42;-4.50;99.90
14786;DHT22;7484;49.906;9.058;2023-02-28T05:27:09;-4.40;99.90
14786;DHT22;7484;49.906;9.058;2023-02-28T05:29:36;-4.50;99.90
14786;DHT22;7484;49.906;9.058;2023-02-28T05:32:09;-4.50;99.90
14786;DHT22;7484;49.906;9.058;2023-02-28T05:34:36;-4.50;99.90
14786;DHT22;7484;49.906;9.058;2023-02-28T05:37:03;-4.60;99.90
14786;DHT22;7484;49.906;9.058;2023-02-28T05:39:30;-4.60;99.90
14786;DHT22;7484;49.906;9.058;2023-02-28T05:41:57;-4.70;99.90
14786;DHT22;7484;49.906;9.058;2023-02-28T05:44:23;-4.60;99.90
14786;DHT22;7484;49.906;9.058;2023-02-28T05:46:50;-4.60;99.90
14786;DHT22;7484;49.906;9.058;2023-02-28T05:49:18;-4.50;99.90
14786;DHT22;7484;49.906;9.058;2023-02-28T05:51:45;-4.50;99.90
14786;DHT22;7484;49.906;9.058;2023-02-28T05:54:12;-4.40;99.90
14786;DHT22;7484;49.906;9.058;2023-02-28T05:56:39;-4.40;99.90
14786;DHT22;7484;49.906;9.058;2023-02-28T05:59:06;-4.40;99.90
14786;DHT22;7484;49.906;9.058;2023-02-28T06:01:34;-4.30;99.90
14786;DHT22;7484;49.906;9.058;2023-02-28T06:04:03;-4.40;99.90
14786;DHT22;7484;49.906;9.058;2023-02-28T06:06:31;-4.40;99.90
14786;DHT22;7484;49.906;9.058;2023-02-28T06:08:59;-4.40;99.90
14786;DHT22;7484;49.906;9.058;2023-02-28T06:11:26;-4.20;99.90
14786;DHT22;7484;49.906;9.058;2023-02-28T06:13:54;-4.20;99.90
14786;DHT22;7484;49.906;9.058;2023-02-28T06:16:22;-4.10;99.90
14786;DHT22;7484;49.906;9.058;2023-02-28T06:18:49;-4.00;99.90
14786;DHT22;7484;49.906;9.058;2023-02-28T06:21:16;-4.10;99.90
14786;DHT22;7484;49.906;9.058;2023-02-28T06:23:44;-4.10;99.90
14786;DHT22;7484;49.906;9.058;2023-02-28T06:26:11;-4.20;99.90
14786;DHT22;7484;49.906;9.058;2023-02-28T06:28:37;-4.30;99.90
14786;DHT22;7484;49.906;9.058;2023-02-28T06:31:08;-4.40;99.90
14786;DHT22;7484;49.906;9.058;2023-02-28T06:33:35;-4.40;99.90
14786;DHT22;7484;49.906;9.058;2023-02-28T06:36:03;-4.30;99.90
14786;DHT22;7484;49.906;9.058;2023-02-28T06:38:30;-4.30;99.90
14786;DHT22;7484;49.906;9.058;2023-02-28T06:40:59;-4.30;99.90
14786;DHT22;7484;49.906;9.058;2023-02-28T06:43:28;-4.20;99.90
14786;DHT22;7484;49.906;9.058;2023-02-28T06:45:55;-4.20;99.90
14786;DHT22;7484;49.906;9.058;2023-02-28T06:48:23;-4.30;99.90
14786;DHT22;7484;49.906;9.058;2023-02-28T06:50:50;-4.30;99.90
14786;DHT22;7484;49.906;9.058;2023-02-28T06:53:17;-4.20;99.90
14786;DHT22;7484;49.906;9.058;2023-02-28T06:55:44;-4.10;99.90
14786;DHT22;7484;49.906;9.058;2023-02-28T06:58:12;-3.80;99.90
14786;DHT22;7484;49.906;9.058;2023-02-28T07:00:41;-3.80;99.90
14786;DHT22;7484;49.906;9.058;2023-02-28T07:03:07;-3.80;99.90
14786;DHT22;7484;49.906;9.058;2023-02-28T07:05:34;-3.70;99.90
14786;DHT22;7484;49.906;9.058;2023-02-28T07:08:01;-3.70;99.90
14786;DHT22;7484;49.906;9.058;2023-02-28T07:10:28;-3.60;99.90
14786;DHT22;7484;49.906;9.058;2023-02-28T07:12:55;-3.50;99.90
14786;DHT22;7484;49.906;9.058;2023-02-28T07:15:24;-3.20;99.90
14786;DHT22;7484;49.906;9.058;2023-02-28T07:17:50;-2.90;99.90
14786;DHT22;7484;49.906;9.058;2023-02-28T07:20:17;-2.90;99.90
14786;DHT22;7484;49.906;9.058;2023-02-28T07:22:44;-2.70;99.90
14786;DHT22;7484;49.906;9.058;2023-02-28T07:25:10;-2.50;99.90
14786;DHT22;7484;49.906;9.058;2023-02-28T07:27:37;-2.40;99.90
14786;DHT22;7484;49.906;9.058;2023-02-28T07:30:05;-2.30;99.90
14786;DHT22;7484;49.906;9.058;2023-02-28T07:32:33;-2.10;99.90
14786;DHT22;7484;49.906;9.058;2023-02-28T07:35:03;-2.00;99.90
14786;DHT22;7484;49.906;9.058;2023-02-28T07:37:30;-1.90;99.90
14786;DHT22;7484;49.906;9.058;2023-02-28T07:40:02;-1.80;99.90
14786;DHT22;7484;49.906;9.058;2023-02-28T07:42:31;-1.70;99.90
14786;DHT22;7484;49.906;9.058;2023-02-28T07:44:58;-1.60;99.90
14786;DHT22;7484;49.906;9.058;2023-02-28T07:47:25;-1.50;99.90
14786;DHT22;7484;49.906;9.058;2023-02-28T07:49:53;-1.40;99.90
14786;DHT22;7484;49.906;9.058;2023-02-28T07:52:19;-1.30;99.90
14786;DHT22;7484;49.906;9.058;2023-02-28T07:54:46;-1.10;99.90
14786;DHT22;7484;49.906;9.058;2023-02-28T07:57:13;-0.90;99.90
14786;DHT22;7484;49.906;9.058;2023-02-28T07:59:39;-0.70;99.90
14786;DHT22;7484;49.906;9.058;2023-02-28T08:02:06;-0.60;99.90
14786;DHT22;7484;49.906;9.058;2023-02-28T08:04:33;-0.40;99.90
14786;DHT22;7484;49.906;9.058;2023-02-28T08:07:01;-0.30;99.90
14786;DHT22;7484;49.906;9.058;2023-02-28T08:09:27;-0.10;99.90
14786;DHT22;7484;49.906;9.058;2023-02-28T08:11:55;0.00;99.90
14786;DHT22;7484;49.906;9.058;2023-02-28T08:14:22;0.10;99.90
14786;DHT22;7484;49.906;9.058;2023-02-28T08:16:48;0.20;99.90
14786;DHT22;7484;49.906;9.058;2023-02-28T08:19:15;0.40;99.90
14786;DHT22;7484;49.906;9.058;2023-02-28T08:21:42;0.40;99.90
14786;DHT22;7484;49.906;9.058;2023-02-28T08:24:10;0.50;99.90
14786;DHT22;7484;49.906;9.058;2023-02-28T08:26:37;0.60;99.90
14786;DHT22;7484;49.906;9.058;2023-02-28T08:29:03;0.70;99.90
14786;DHT22;7484;49.906;9.058;2023-02-28T08:31:30;0.80;99.90
14786;DHT22;7484;49.906;9.058;2023-02-28T08:33:57;0.80;99.90
14786;DHT22;7484;49.906;9.058;2023-02-28T08:36:24;0.90;99.90
14786;DHT22;7484;49.906;9.058;2023-02-28T08:38:52;1.00;99.90
14786;DHT22;7484;49.906;9.058;2023-02-28T08:41:20;1.10;99.90
14786;DHT22;7484;49.906;9.058;2023-02-28T08:43:46;1.30;99.90
14786;DHT22;7484;49.906;9.058;2023-02-28T08:46:13;1.40;99.90
14786;DHT22;7484;49.906;9.058;2023-02-28T08:48:40;1.40;99.90
14786;DHT22;7484;49.906;9.058;2023-02-28T08:51:09;1.50;99.90
14786;DHT22;7484;49.906;9.058;2023-02-28T08:53:36;1.60;99.90
14786;DHT22;7484;49.906;9.058;2023-02-28T08:56:05;1.70;99.90
14786;DHT22;7484;49.906;9.058;2023-02-28T08:58:34;1.70;99.90
14786;DHT22;7484;49.906;9.058;2023-02-28T09:01:08;1.80;99.90
14786;DHT22;7484;49.906;9.058;2023-02-28T09:03:35;1.80;99.90
14786;DHT22;7484;49.906;9.058;2023-02-28T09:06:01;1.90;99.90
14786;DHT22;7484;49.906;9.058;2023-02-28T09:08:29;1.90;99.90
14786;DHT22;7484;49.906;9.058;2023-02-28T09:10:56;1.90;99.90
14786;DHT22;7484;49.906;9.058;2023-02-28T09:13:23;2.00;99.90
14786;DHT22;7484;49.906;9.058;2023-02-28T09:15:52;2.10;99.90
14786;DHT22;7484;49.906;9.058;2023-02-28T09:18:19;2.20;99.90
14786;DHT22;7484;49.906;9.058;2023-02-28T09:20:46;2.20;99.90
14786;DHT22;7484;49.906;9.058;2023-02-28T09:23:13;2.30;99.90
14786;DHT22;7484;49.906;9.058;2023-02-28T09:25:46;2.30;99.90
14786;DHT22;7484;49.906;9.058;2023-02-28T09:28:13;2.40;99.90
14786;DHT22;7484;49.906;9.058;2023-02-28T09:30:41;2.40;99.90
14786;DHT22;7484;49.906;9.058;2023-02-28T09:33:09;2.50;99.90
14786;DHT22;7484;49.906;9.058;2023-02-28T09:35:36;2.60;99.90
14786;DHT22;7484;49.906;9.058;2023-02-28T09:38:03;2.70;99.90
14786;DHT22;7484;49.906;9.058;2023-02-28T09:40:31;2.80;99.90
14786;DHT22;7484;49.906;9.058;2023-02-28T09:42:59;2.90;99.90
14786;DHT22;7484;49.906;9.058;2023-02-28T09:45:30;3.00;99.90
14786;DHT22;7484;49.906;9.058;2023-02-28T09:48:01;3.10;99.90
14786;DHT22;7484;49.906;9.058;2023-02-28T09:50:36;3.30;99.90
14786;DHT22;7484;49.906;9.058;2023-02-28T09:53:11;3.40;99.90
14786;DHT22;7484;49.906;9.058;2023-02-28T09:55:43;3.40;99.90
14786;DHT22;7484;49.906;9.058;2023-02-28T09:58:18;3.50;99.90
14786;DHT22;7484;49.906;9.058;2023-02-28T10:00:52;3.70;99.40
14786;DHT22;7484;49.906;9.058;2023-02-28T10:03:29;3.70;98.70
14786;DHT22;7484;49.906;9.058;2023-02-28T10:06:02;3.90;99.00
14786;DHT22;7484;49.906;9.058;2023-02-28T10:08:33;4.20;99.20
14786;DHT22;7484;49.906;9.058;2023-02-28T10:11:09;4.50;98.10
14786;DHT22;7484;49.906;9.058;2023-02-28T10:13:51;4.60;98.60
14786;DHT22;7484;49.906;9.058;2023-02-28T10:16:25;4.90;96.60
14786;DHT22;7484;49.906;9.058;2023-02-28T10:18:55;4.70;96.70
14786;DHT22;7484;49.906;9.058;2023-02-28T10:21:27;4.70;96.20
14786;DHT22;7484;49.906;9.058;2023-02-28T10:24:02;4.80;95.90
14786;DHT22;7484;49.906;9.058;2023-02-28T10:26:31;5.10;95.40
14786;DHT22;7484;49.906;9.058;2023-02-28T10:28:59;5.20;95.70
14786;DHT22;7484;49.906;9.058;2023-02-28T10:31:26;5.10;95.40
14786;DHT22;7484;49.906;9.058;2023-02-28T10:33:53;5.30;95.10
14786;DHT22;7484;49.906;9.058;2023-02-28T10:36:25;5.60;95.40
14786;DHT22;7484;49.906;9.058;2023-02-28T10:38:51;5.80;94.20
14786;DHT22;7484;49.906;9.058;2023-02-28T10:41:27;5.90;93.80
14786;DHT22;7484;49.906;9.058;2023-02-28T10:44:13;5.90;93.90
14786;DHT22;7484;49.906;9.058;2023-02-28T10:46:41;5.50;94.10
14786;DHT22;7484;49.906;9.058;2023-02-28T10:49:14;5.60;94.50
14786;DHT22;7484;49.906;9.058;2023-02-28T10:51:42;5.30;94.20
14786;DHT22;7484;49.906;9.058;2023-02-28T10:54:16;4.90;94.50
14786;DHT22;7484;49.906;9.058;2023-02-28T10:56:44;4.50;94.80
14786;DHT22;7484;49.906;9.058;2023-02-28T10:59:28;4.40;95.40
14786;DHT22;7484;49.906;9.058;2023-02-28T11:01:55;4.60;95.40
14786;DHT22;7484;49.906;9.058;2023-02-28T11:04:33;5.20;95.70
14786;DHT22;7484;49.906;9.058;2023-02-28T11:07:04;5.50;95.10
14786;DHT22;7484;49.906;9.058;2023-02-28T11:09:34;6.00;94.30
14786;DHT22;7484;49.906;9.058;2023-02-28T11:12:02;6.30;94.00
14786;DHT22;7484;49.906;9.058;2023-02-28T11:14:32;6.90;93.10
14786;DHT22;7484;49.906;9.058;2023-02-28T11:17:13;7.20;90.00
14786;DHT22;7484;49.906;9.058;2023-02-28T11:19:45;7.00;89.70
14786;DHT22;7484;49.906;9.058;2023-02-28T11:22:17;7.00;90.50
14786;DHT22;7484;49.906;9.058;2023-02-28T11:24:46;7.50;90.30
14786;DHT22;7484;49.906;9.058;2023-02-28T11:27:25;7.60;88.40
14786;DHT22;7484;49.906;9.058;2023-02-28T11:29:52;7.80;86.40
14786;DHT22;7484;49.906;9.058;2023-02-28T11:32:20;8.10;85.70
14786;DHT22;7484;49.906;9.058;2023-02-28T11:35:00;8.10;85.20
14786;DHT22;7484;49.906;9.058;2023-02-28T11:37:31;8.00;85.80
14786;DHT22;7484;49.906;9.058;2023-02-28T11:39:58;7.90;82.40
14786;DHT22;7484;49.906;9.058;2023-02-28T11:42:36;7.60;84.50
14786;DHT22;7484;49.906;9.058;2023-02-28T11:45:18;7.20;85.10
14786;DHT22;7484;49.906;9.058;2023-02-28T11:47:53;7.10;87.00
14786;DHT22;7484;49.906;9.058;2023-02-28T11:50:38;7.40;86.50
14786;DHT22;7484;49.906;9.058;2023-02-28T11:53:17;7.60;85.50
14786;DHT22;7484;49.906;9.058;2023-02-28T11:55:51;7.90;84.10
14786;DHT22;7484;49.906;9.058;2023-02-28T11:58:31;8.00;83.00
14786;DHT22;7484;49.906;9.058;2023-02-28T12:01:19;7.90;83.30
14786;DHT22;7484;49.906;9.058;2023-02-28T12:04:03;7.90;84.20
14786;DHT22;7484;49.906;9.058;2023-02-28T12:06:40;8.00;81.50
14786;DHT22;7484;49.906;9.058;2023-02-28T12:09:27;8.10;82.20
14786;DHT22;7484;49.906;9.058;2023-02-28T12:11:58;8.10;82.30
14786;DHT22;7484;49.906;9.058;2023-02-28T12:14:46;8.20;81.10
14786;DHT22;7484;49.906;9.058;2023-02-28T12:17:25;8.30;81.80
14786;DHT22;7484;49.906;9.058;2023-02-28T12:19:59;8.30;81.20
14786;DHT22;7484;49.906;9.058;2023-02-28T12:22:29;8.60;81.30
14786;DHT22;7484;49.906;9.058;2023-02-28T12:25:31;8.80;79.40
14786;DHT22;7484;49.906;9.058;2023-02-28T12:28:04;8.70;78.50
14786;DHT22;7484;49.906;9.058;2023-02-28T12:30:33;8.80;79.40
14786;DHT22;7484;49.906;9.058;2023-02-28T12:33:04;9.20;79.00
14786;DHT22;7484;49.906;9.058;2023-02-28T12:35:34;9.50;77.10
14786;DHT22;7484;49.906;9.058;2023-02-28T12:38:08;9.50;76.40
14786;DHT22;7484;49.906;9.058;2023-02-28T12:40:44;9.10;75.80
14786;DHT22;7484;49.906;9.058;2023-02-28T12:43:13;9.30;76.60
14786;DHT22;7484;49.906;9.058;2023-02-28T12:45:44;9.70;74.90
14786;DHT22;7484;49.906;9.058;2023-02-28T12:48:18;9.90;73.50
14786;DHT22;7484;49.906;9.058;2023-02-28T12:50:47;10.10;72.90
14786;DHT22;7484;49.906;9.058;2023-02-28T12:53:18;10.20;72.90
14786;DHT22;7484;49.906;9.058;2023-02-28T12:55:59;10.50;73.00
14786;DHT22;7484;49.906;9.058;2023-02-28T12:58:32;10.60;71.40
14786;DHT22;7484;49.906;9.058;2023-02-28T13:01:23;10.60;69.80
14786;DHT22;7484;49.906;9.058;2023-02-28T13:04:27;10.40;69.60
14786;DHT22;7484;49.906;9.058;2023-02-28T13:07:35;10.20;69.80
14786;DHT22;7484;49.906;9.058;2023-02-28T13:10:08;9.90;73.20
14786;DHT22;7484;49.906;9.058;2023-02-28T13:12:47;9.60;72.50
14786;DHT22;7484;49.906;9.058;2023-02-28T13:15:18;9.60;72.10
14786;DHT22;7484;49.906;9.058;2023-02-28T13:17:49;9.80;71.70
14786;DHT22;7484;49.906;9.058;2023-02-28T13:20:19;9.80;71.00
14786;DHT22;7484;49.906;9.058;2023-02-28T13:22:48;10.10;69.80
14786;DHT22;7484;49.906;9.058;2023-02-28T13:32:20;10.40;69.20
14786;DHT22;7484;49.906;9.058;2023-02-28T13:38:23;10.30;68.40
14786;DHT22;7484;49.906;9.058;2023-02-28T13:40:50;10.40;68.60
14786;DHT22;7484;49.906;9.058;2023-02-28T13:43:18;10.70;67.90
14786;DHT22;7484;49.906;9.058;2023-02-28T13:46:08;11.10;67.70
14786;DHT22;7484;49.906;9.058;2023-02-28T13:48:38;11.30;66.60
14786;DHT22;7484;49.906;9.058;2023-02-28T13:51:36;11.00;66.90
14786;DHT22;7484;49.906;9.058;2023-02-28T13:54:24;11.30;66.20
14786;DHT22;7484;49.906;9.058;2023-02-28T13:57:05;10.60;66.10
14786;DHT22;7484;49.906;9.058;2023-02-28T13:59:42;10.20;68.40
14786;DHT22;7484;49.906;9.058;2023-02-28T14:02:32;10.50;67.80
14786;DHT22;7484;49.906;9.058;2023-02-28T14:05:06;10.70;66.70
14786;DHT22;7484;49.906;9.058;2023-02-28T14:07:42;10.70;65.40
14786;DHT22;7484;49.906;9.058;2023-02-28T14:10:24;10.60;66.20
14786;DHT22;7484;49.906;9.058;2023-02-28T14:12:54;10.50;66.90
14786;DHT22;7484;49.906;9.058;2023-02-28T14:15:44;10.40;66.90
14786;DHT22;7484;49.906;9.058;2023-02-28T14:18:22;10.10;67.00
14786;DHT22;7484;49.906;9.058;2023-02-28T14:20:55;9.50;70.10
14786;DHT22;7484;49.906;9.058;2023-02-28T14:23:35;8.60;70.90
14786;DHT22;7484;49.906;9.058;2023-02-28T14:26:10;8.10;74.10
14786;DHT22;7484;49.906;9.058;2023-02-28T14:28:50;7.80;75.10
14786;DHT22;7484;49.906;9.058;2023-02-28T14:31:24;7.70;76.20
14786;DHT22;7484;49.906;9.058;2023-02-28T14:34:13;7.60;77.40
14786;DHT22;7484;49.906;9.058;2023-02-28T14:36:45;7.70;77.80
14786;DHT22;7484;49.906;9.058;2023-02-28T14:39:13;7.60;77.20
14786;DHT22;7484;49.906;9.058;2023-02-28T14:41:42;7.50;77.50
14786;DHT22;7484;49.906;9.058;2023-02-28T14:44:16;7.60;78.40
14786;DHT22;7484;49.906;9.058;2023-02-28T14:46:45;7.70;77.60
14786;DHT22;7484;49.906;9.058;2023-02-28T14:49:24;7.80;77.80
14786;DHT22;7484;49.906;9.058;2023-02-28T14:52:06;7.90;76.80
14786;DHT22;7484;49.906;9.058;2023-02-28T14:54:35;8.00;76.70
14786;DHT22;7484;49.906;9.058;2023-02-28T14:57:02;8.30;76.90
14786;DHT22;7484;49.906;9.058;2023-02-28T14:59:31;8.60;75.80
14786;DHT22;7484;49.906;9.058;2023-02-28T15:02:18;8.60;74.50
14786;DHT22;7484;49.906;9.058;2023-02-28T15:04:53;8.70;73.20
14786;DHT22;7484;49.906;9.058;2023-02-28T15:07:22;8.90;73.30
14786;DHT22;7484;49.906;9.058;2023-02-28T15:10:09;9.00;74.00
14786;DHT22;7484;49.906;9.058;2023-02-28T15:12:37;9.60;72.30
14786;DHT22;7484;49.906;9.058;2023-02-28T15:15:06;10.40;69.70
14786;DHT22;7484;49.906;9.058;2023-02-28T15:17:34;11.30;67.30
14786;DHT22;7484;49.906;9.058;2023-02-28T15:20:01;12.10;65.90
14786;DHT22;7484;49.906;9.058;2023-02-28T15:22:35;12.80;63.90
14786;DHT22;7484;49.906;9.058;2023-02-28T15:25:05;13.40;62.30
14786;DHT22;7484;49.906;9.058;2023-02-28T15:27:34;13.00;61.10
14786;DHT22;7484;49.906;9.058;2023-02-28T15:30:12;12.40;61.00
14786;DHT22;7484;49.906;9.058;2023-02-28T15:32:41;11.70;62.50
14786;DHT22;7484;49.906;9.058;2023-02-28T15:35:19;11.60;63.00
14786;DHT22;7484;49.906;9.058;2023-02-28T15:37:53;11.30;62.80
14786;DHT22;7484;49.906;9.058;2023-02-28T15:40:25;10.70;64.00
14786;DHT22;7484;49.906;9.058;2023-02-28T15:43:03;10.00;65.10
14786;DHT22;7484;49.906;9.058;2023-02-28T15:45:37;9.30;67.30
14786;DHT22;7484;49.906;9.058;2023-02-28T15:48:16;8.70;69.00
14786;DHT22;7484;49.906;9.058;2023-02-28T15:50:44;8.20;71.20
14786;DHT22;7484;49.906;9.058;2023-02-28T15:53:18;7.90;72.60
14786;DHT22;7484;49.906;9.058;2023-02-28T15:55:53;7.70;74.80
14786;DHT22;7484;49.906;9.058;2023-02-28T15:58:20;7.60;77.00
14786;DHT22;7484;49.906;9.058;2023-02-28T16:01:00;7.40;77.10
14786;DHT22;7484;49.906;9.058;2023-02-28T16:03:38;7.20;77.70
14786;DHT22;7484;49.906;9.058;2023-02-28T16:06:32;7.20;78.00
14786;DHT22;7484;49.906;9.058;2023-02-28T16:09:01;7.10;79.10
14786;DHT22;7484;49.906;9.058;2023-02-28T16:11:27;7.20;79.70
14786;DHT22;7484;49.906;9.058;2023-02-28T16:13:58;7.20;79.70
14786;DHT22;7484;49.906;9.058;2023-02-28T16:16:26;7.00;79.30
14786;DHT22;7484;49.906;9.058;2023-02-28T16:18:52;6.90;80.90
14786;DHT22;7484;49.906;9.058;2023-02-28T16:21:19;6.90;81.80
14786;DHT22;7484;49.906;9.058;2023-02-28T16:23:47;6.90;81.70
14786;DHT22;7484;49.906;9.058;2023-02-28T16:26:21;6.80;81.90
14786;DHT22;7484;49.906;9.058;2023-02-28T16:28:48;6.80;82.40
14786;DHT22;7484;49.906;9.058;2023-02-28T16:31:15;6.60;83.70
14786;DHT22;7484;49.906;9.058;2023-02-28T16:33:43;6.50;83.90